Bookmark and Share
Track history (hours):
 

Suurhusen

Last reported at 2012-Jun-14 04:35 UTC. Time now 2014-Apr-24 13:35 UTC.
Position N 37°46' E 024°32'.
Warning: this ship's position is years out of date!

Length 90 m; draft 5.6 m.

Type: Cargo ship. MMSI: 304010652.

NotesDate/timePositionNaut miles runAvg speedWind from/ knotsBaromVisibWave heightAir tempDewpointWater temp
2012-Jun-14 04:35N 37°46' E 024°32'10 9.4
2012-Jun-14 03:33N 37°37' E 024°26'20 9.7
2012-Jun-14 01:32N 37°21' E 024°12'10 9.9
2012-Jun-14 00:33N 37°14' E 024°03'1010.1
2012-Jun-13 23:31N 37°06' E 023°55'10 9.9
2012-Jun-13 22:32N 36°59' E 023°47'112 9.3
2012-Jun-13 10:28N 36°33' E 021°31'  
2012-Jun-10 03:32N 42°13' E 007°10'2210.9
2012-Jun-10 01:32N 42°25' E 006°46'1210.8
2012-Jun-10 00:28N 42°31' E 006°32'1010.8
2012-Jun-09 23:31N 42°36' E 006°21'1110.9
2012-Jun-09 22:32N 42°42' E 006°08'1110.5
2012-Jun-09 21:32N 42°48' E 005°56'9 9.5
2012-Jun-09 20:33N 42°54' E 005°47'1010.0
2012-Jun-09 19:33N 42°59' E 005°36'1110.6
2012-Jun-09 18:33N 43°05' E 005°24'1110.8
2012-Jun-09 17:33N 43°11' E 005°11'1111.0
2012-Jun-09 16:34N 43°18' E 004°59'9 8.7
2012-Jun-09 15:32N 43°26' E 004°53'0 0.0
2012-Jun-09 14:32N 43°26' E 004°53'0 0.0
2012-Jun-09 13:32N 43°26' E 004°53'0 0.0
2012-Jun-09 12:32N 43°26' E 004°53'0 0.0
2012-Jun-09 11:32N 43°26' E 004°53'0 0.0
2012-Jun-09 10:35N 43°26' E 004°53'0 0.0
2012-Jun-09 09:32N 43°26' E 004°53'0 0.0
2012-Jun-09 08:32N 43°26' E 004°53'0 0.0
2012-Jun-09 07:32N 43°26' E 004°53'0 0.0
2012-Jun-09 06:32N 43°26' E 004°53'0 0.0
2012-Jun-09 05:32N 43°26' E 004°53'0 0.0
2012-Jun-09 04:35N 43°26' E 004°53'0 0.0
2012-Jun-09 03:32N 43°26' E 004°53'0 0.0
2012-Jun-09 02:32N 43°26' E 004°53'0 0.0
2012-Jun-09 01:32N 43°26' E 004°53'0 0.0
2012-Jun-09 00:32N 43°26' E 004°53'0 0.0
2012-Jun-08 23:32N 43°26' E 004°53'0 0.0
2012-Jun-08 22:32N 43°26' E 004°53'0 0.0
2012-Jun-08 21:32N 43°26' E 004°53'0 0.0
2012-Jun-08 20:32N 43°26' E 004°53'0 0.0
2012-Jun-08 19:32N 43°26' E 004°53'0 0.0
2012-Jun-08 18:32N 43°26' E 004°53'0 0.0
2012-Jun-08 17:32N 43°26' E 004°53'0 0.0
2012-Jun-08 16:32N 43°26' E 004°53'0 0.0
2012-Jun-08 15:32N 43°26' E 004°53'0 0.0
2012-Jun-08 14:32N 43°26' E 004°53'0 0.0
2012-Jun-08 13:32N 43°26' E 004°53'0 0.0
2012-Jun-08 12:32N 43°26' E 004°53'0 0.0
2012-Jun-08 11:32N 43°26' E 004°53'0 0.0
2012-Jun-08 10:35N 43°26' E 004°53'0 0.0
2012-Jun-08 09:32N 43°26' E 004°53'0 0.0
2012-Jun-08 08:32N 43°26' E 004°53'0 0.0
2012-Jun-08 07:32N 43°26' E 004°53'0 0.0
2012-Jun-08 06:32N 43°26' E 004°53'0 0.0
2012-Jun-08 05:32N 43°26' E 004°53'0 0.0
2012-Jun-08 04:35N 43°26' E 004°53'0 0.0
2012-Jun-08 03:32N 43°26' E 004°53'0 0.0
2012-Jun-08 02:32N 43°26' E 004°53'0 0.0
2012-Jun-08 01:32N 43°26' E 004°53'0 0.0
2012-Jun-08 00:32N 43°26' E 004°53'0 0.0
2012-Jun-07 23:32N 43°26' E 004°53'0 0.0
2012-Jun-07 22:32N 43°26' E 004°53'0 0.0
2012-Jun-07 21:32N 43°26' E 004°53'0 0.0
2012-Jun-07 20:32N 43°26' E 004°53'0 0.0
2012-Jun-07 19:32N 43°26' E 004°53'9 0.2
2012-Jun-06 05:33N 43°18' E 004°60'  

Dump ship's entire track history

sailing weather and tide predictions

Suurhusen — V2AN2 — position and weather